Terminal Aerodrome Forecast
Issued by NWS

Home | Current Version | Previous Version | Text Only | Print | Product List | Glossary On
Versions: 1 2 3 4 5 6 7 8 9 10 11 12 13 14 15 16 17 18 19 20 21 22 23 24 25 26
000
FTUS43 KBIS 270700 AAC
TAFJMS
TAF AMD
KJMS 270724Z 2707/2806 VRB03KT 1/2SM FG OVC002
      TEMPO 2708/2712 1/4SM FG OVC001
     FM271500 16009KT P6SM SCT040
     FM280100 15005KT P6SM BKN040=

USA.gov is the U.S. government's official web portal to all federal, state and local government web resources and services.